createdAt,value
2016-11-24T00:00:18.952Z,956.6
2016-11-24T00:01:18.938Z,956.56
2016-11-24T00:02:19.168Z,956.61
2016-11-24T00:03:18.911Z,956.56
2016-11-24T00:04:18.898Z,956.54
2016-11-24T00:05:18.881Z,956.59
2016-11-24T00:06:18.868Z,956.6
2016-11-24T00:07:18.854Z,956.57
2016-11-24T00:08:18.843Z,956.61
2016-11-24T00:09:18.832Z,956.58
2016-11-24T00:10:18.815Z,956.58
2016-11-24T00:11:18.799Z,956.6
2016-11-24T00:12:18.784Z,956.61
2016-11-24T00:13:18.771Z,956.61
2016-11-24T00:14:18.757Z,956.6
2016-11-24T00:15:18.745Z,956.59
2016-11-24T00:16:18.727Z,956.58
2016-11-24T00:17:18.715Z,956.56
2016-11-24T00:18:18.701Z,956.54
2016-11-24T00:19:18.690Z,956.56
2016-11-24T00:20:18.674Z,956.49
2016-11-24T00:21:18.659Z,956.55
2016-11-24T00:22:18.645Z,956.57
2016-11-24T00:23:18.632Z,956.53
2016-11-24T00:24:18.618Z,956.52
2016-11-24T00:25:18.604Z,956.55
2016-11-24T00:26:18.590Z,956.55
2016-11-24T00:27:18.576Z,956.53
2016-11-24T00:28:18.562Z,956.54
2016-11-24T00:29:18.548Z,956.51
2016-11-24T00:30:18.535Z,956.55
2016-11-24T00:31:18.520Z,956.52
2016-11-24T00:32:18.506Z,956.57
2016-11-24T00:33:18.492Z,956.54
2016-11-24T00:34:18.478Z,956.56
2016-11-24T00:35:18.465Z,956.54
2016-11-24T00:36:18.451Z,956.55
2016-11-24T00:37:18.437Z,956.55
2016-11-24T00:38:18.422Z,956.59
2016-11-24T00:39:18.409Z,956.57
2016-11-24T00:40:18.396Z,956.56
2016-11-24T00:41:18.383Z,956.57
2016-11-24T00:42:18.368Z,956.58
2016-11-24T00:43:18.354Z,956.57
2016-11-24T00:44:18.339Z,956.52
2016-11-24T00:45:18.325Z,956.53
2016-11-24T00:46:18.312Z,956.52
2016-11-24T00:47:18.299Z,956.51
2016-11-24T00:48:18.284Z,956.48
2016-11-24T00:49:18.270Z,956.53
2016-11-24T00:50:18.256Z,956.54
2016-11-24T00:51:18.243Z,956.54
2016-11-24T00:52:18.228Z,956.48
2016-11-24T00:53:18.214Z,956.54
2016-11-24T00:54:18.200Z,956.48
2016-11-24T00:55:18.187Z,956.49
2016-11-24T00:56:18.172Z,956.49
2016-11-24T00:57:18.159Z,956.52
2016-11-24T00:58:18.145Z,956.48
2016-11-24T00:59:18.130Z,956.5
2016-11-24T01:00:18.116Z,956.53
2016-11-24T01:01:18.103Z,956.51
2016-11-24T01:02:18.090Z,956.49
2016-11-24T01:03:18.076Z,956.5
2016-11-24T01:04:18.061Z,956.48
2016-11-24T01:05:18.048Z,956.5
2016-11-24T01:06:18.049Z,956.48
2016-11-24T01:07:18.019Z,956.47
2016-11-24T01:08:18.006Z,956.48
2016-11-24T01:09:17.992Z,956.5
2016-11-24T01:10:17.979Z,956.51
2016-11-24T01:11:17.965Z,956.47
2016-11-24T01:12:17.951Z,956.49
2016-11-24T01:13:17.936Z,956.51
2016-11-24T01:14:17.924Z,956.49
2016-11-24T01:15:17.909Z,956.46
2016-11-24T01:16:17.896Z,956.52
2016-11-24T01:17:17.882Z,956.51
2016-11-24T01:18:17.869Z,956.49
2016-11-24T01:19:17.855Z,956.51
2016-11-24T01:20:17.841Z,956.48
2016-11-24T01:21:17.829Z,956.48
2016-11-24T01:22:17.813Z,956.48
2016-11-24T01:23:17.802Z,956.5
2016-11-24T01:24:17.786Z,956.49
2016-11-24T01:25:17.773Z,956.5
2016-11-24T01:26:17.761Z,956.48
2016-11-24T01:27:17.747Z,956.47
2016-11-24T01:28:17.734Z,956.54
2016-11-24T01:29:17.719Z,956.49
2016-11-24T01:30:17.706Z,956.53
2016-11-24T01:31:17.693Z,956.53
2016-11-24T01:32:17.680Z,956.52
2016-11-24T01:33:17.666Z,956.62
2016-11-24T01:34:17.653Z,956.6
2016-11-24T01:35:17.639Z,956.58
2016-11-24T01:36:17.624Z,956.57
2016-11-24T01:37:17.611Z,956.56
2016-11-24T01:38:17.598Z,956.57
2016-11-24T01:39:17.585Z,956.58
2016-11-24T01:40:17.571Z,956.59
2016-11-24T01:41:17.599Z,956.59
2016-11-24T01:42:17.543Z,956.65
2016-11-24T01:43:17.530Z,956.58
2016-11-24T01:44:17.515Z,956.59
2016-11-24T01:45:17.504Z,956.65
2016-11-24T01:46:17.490Z,956.67
2016-11-24T01:47:17.476Z,956.68
2016-11-24T01:48:17.462Z,956.74
2016-11-24T01:49:17.448Z,956.74
2016-11-24T01:50:17.436Z,956.7
2016-11-24T01:51:17.422Z,956.76
2016-11-24T01:52:17.409Z,956.73
2016-11-24T01:53:17.395Z,956.73
2016-11-24T01:54:17.382Z,956.73
2016-11-24T01:55:17.366Z,956.75
2016-11-24T01:56:17.354Z,956.76
2016-11-24T01:57:17.341Z,956.76
2016-11-24T01:58:17.327Z,956.72
2016-11-24T01:59:17.314Z,956.74
2016-11-24T02:00:17.301Z,956.74
2016-11-24T02:01:17.288Z,956.7
2016-11-24T02:02:17.273Z,956.68
2016-11-24T02:03:17.260Z,956.7
2016-11-24T02:04:17.246Z,956.64
2016-11-24T02:05:17.233Z,956.66
2016-11-24T02:06:17.218Z,956.64
2016-11-24T02:07:17.206Z,956.68
2016-11-24T02:08:17.192Z,956.63
2016-11-24T02:09:17.177Z,956.64
2016-11-24T02:10:17.165Z,956.63
2016-11-24T02:11:17.152Z,956.62
2016-11-24T02:12:17.141Z,956.63
2016-11-24T02:13:17.642Z,956.64
2016-11-24T02:14:17.110Z,956.62
2016-11-24T02:15:17.097Z,956.63
2016-11-24T02:16:17.085Z,956.59
2016-11-24T02:17:17.069Z,956.57
2016-11-24T02:18:17.056Z,956.57
2016-11-24T02:19:17.044Z,956.55
2016-11-24T02:20:17.030Z,956.55
2016-11-24T02:21:17.016Z,956.55
2016-11-24T02:22:17.004Z,956.59
2016-11-24T02:23:16.989Z,956.59
2016-11-24T02:24:16.976Z,956.58
2016-11-24T02:25:16.962Z,956.58
2016-11-24T02:26:16.949Z,956.59
2016-11-24T02:27:16.936Z,956.55
2016-11-24T02:28:16.920Z,956.58
2016-11-24T02:29:16.908Z,956.59
2016-11-24T02:30:16.894Z,956.59
2016-11-24T02:31:16.880Z,956.59
2016-11-24T02:32:16.867Z,956.57
2016-11-24T02:33:16.853Z,956.57
2016-11-24T02:34:16.842Z,956.57
2016-11-24T02:35:16.826Z,956.57
2016-11-24T02:36:16.813Z,956.59
2016-11-24T02:37:16.799Z,956.6
2016-11-24T02:38:16.787Z,956.59
2016-11-24T02:39:16.773Z,956.59
2016-11-24T02:40:16.759Z,956.59
2016-11-24T02:41:16.747Z,956.59
2016-11-24T02:42:16.732Z,956.6
2016-11-24T02:43:16.720Z,956.57
2016-11-24T02:44:16.705Z,956.57
2016-11-24T02:45:16.692Z,956.58
2016-11-24T02:46:16.677Z,956.57
2016-11-24T02:47:16.665Z,956.52
2016-11-24T02:48:16.653Z,956.5
2016-11-24T02:49:16.637Z,956.53
2016-11-24T02:50:16.623Z,956.52
2016-11-24T02:51:16.611Z,956.53
2016-11-24T02:52:16.596Z,956.48
2016-11-24T02:53:16.583Z,956.52
2016-11-24T02:54:16.570Z,956.48
2016-11-24T02:55:16.555Z,956.48
2016-11-24T02:56:16.542Z,956.44
2016-11-24T02:57:16.528Z,956.41
2016-11-24T02:58:16.516Z,956.39
2016-11-24T02:59:16.501Z,956.36
2016-11-24T03:00:16.489Z,956.36
2016-11-24T03:01:16.474Z,956.38
2016-11-24T03:02:16.461Z,956.33
2016-11-24T03:03:16.449Z,956.32
2016-11-24T03:04:16.433Z,956.36
2016-11-24T03:05:16.420Z,956.4
2016-11-24T03:06:16.405Z,956.42
2016-11-24T03:07:16.393Z,956.43
2016-11-24T03:08:16.379Z,956.42
2016-11-24T03:09:16.364Z,956.43
2016-11-24T03:10:16.351Z,956.47
2016-11-24T03:11:16.337Z,956.47
2016-11-24T03:12:16.323Z,956.46
2016-11-24T03:13:16.309Z,956.51
2016-11-24T03:14:16.295Z,956.49
2016-11-24T03:15:16.280Z,956.51
2016-11-24T03:16:16.269Z,956.54
2016-11-24T03:17:16.255Z,956.54
2016-11-24T03:18:16.241Z,956.52
2016-11-24T03:19:16.226Z,956.49
2016-11-24T03:20:16.216Z,956.55
2016-11-24T03:21:16.200Z,956.53
2016-11-24T03:22:16.184Z,956.55
2016-11-24T03:23:16.171Z,956.61
2016-11-24T03:24:16.158Z,956.6
2016-11-24T03:25:16.144Z,956.59
2016-11-24T03:26:16.130Z,956.69
2016-11-24T03:27:16.116Z,956.66
2016-11-24T03:28:16.102Z,956.7
2016-11-24T03:29:16.089Z,956.66
2016-11-24T03:30:16.073Z,956.65
2016-11-24T03:31:16.062Z,956.68
2016-11-24T03:32:16.046Z,956.66
2016-11-24T03:33:16.034Z,956.72
2016-11-24T03:34:16.024Z,956.78
2016-11-24T03:35:16.004Z,956.73
2016-11-24T03:36:15.993Z,956.76
2016-11-24T03:37:15.978Z,956.79
2016-11-24T03:38:15.965Z,956.79
2016-11-24T03:39:15.952Z,956.77
2016-11-24T03:40:15.937Z,956.78
2016-11-24T03:41:15.923Z,956.8
2016-11-24T03:42:15.908Z,956.8
2016-11-24T03:43:15.897Z,956.78
2016-11-24T03:44:15.882Z,956.75
2016-11-24T03:45:15.871Z,956.8
2016-11-24T03:46:15.854Z,956.75
2016-11-24T03:47:15.841Z,956.77
2016-11-24T03:48:15.826Z,956.71
2016-11-24T03:49:15.813Z,956.73
2016-11-24T03:50:15.800Z,956.69
2016-11-24T03:51:15.786Z,956.7
2016-11-24T03:52:15.774Z,956.67
2016-11-24T03:53:15.760Z,956.7
2016-11-24T03:54:15.746Z,956.68
2016-11-24T03:55:15.731Z,956.7
2016-11-24T03:56:15.718Z,956.66
2016-11-24T03:57:15.705Z,956.66
2016-11-24T03:58:15.695Z,956.61
2016-11-24T03:59:15.676Z,956.61
2016-11-24T04:00:15.662Z,956.59
2016-11-24T04:01:15.648Z,956.6
2016-11-24T04:02:15.635Z,956.56
2016-11-24T04:03:15.621Z,956.56
2016-11-24T04:04:15.608Z,956.59
2016-11-24T04:05:15.594Z,956.58
2016-11-24T04:06:15.579Z,956.53
2016-11-24T04:07:15.565Z,956.53
2016-11-24T04:08:15.552Z,956.53
2016-11-24T04:09:15.539Z,956.52
2016-11-24T04:10:15.524Z,956.49
2016-11-24T04:11:15.511Z,956.5
2016-11-24T04:12:15.498Z,956.54
2016-11-24T04:13:15.484Z,956.5
2016-11-24T04:14:15.470Z,956.47
2016-11-24T04:15:15.455Z,956.49
2016-11-24T04:16:15.441Z,956.51
2016-11-24T04:17:15.427Z,956.5
2016-11-24T04:18:15.415Z,956.51
2016-11-24T04:19:15.400Z,956.49
2016-11-24T04:20:15.388Z,956.52
2016-11-24T04:21:15.373Z,956.52
2016-11-24T04:22:15.359Z,956.51
2016-11-24T04:23:15.345Z,956.51
2016-11-24T04:24:15.335Z,956.53
2016-11-24T04:25:15.317Z,956.52
2016-11-24T04:26:15.305Z,956.54
2016-11-24T04:27:15.290Z,956.53
2016-11-24T04:28:15.275Z,956.56
2016-11-24T04:29:15.262Z,956.57
2016-11-24T04:30:15.248Z,956.52
2016-11-24T04:31:15.233Z,956.54
2016-11-24T04:32:15.221Z,956.5
2016-11-24T04:33:15.206Z,956.48
2016-11-24T04:34:15.193Z,956.54
2016-11-24T04:35:15.181Z,956.53
2016-11-24T04:36:15.166Z,956.51
2016-11-24T04:37:15.154Z,956.51
2016-11-24T04:38:15.139Z,956.52
2016-11-24T04:39:15.127Z,956.56
2016-11-24T04:40:15.111Z,956.51
2016-11-24T04:41:15.098Z,956.53
2016-11-24T04:42:15.084Z,956.58
2016-11-24T04:43:15.071Z,956.54
2016-11-24T04:44:15.058Z,956.55
2016-11-24T04:45:15.044Z,956.54
2016-11-24T04:46:15.029Z,956.58
2016-11-24T04:47:15.014Z,956.6
2016-11-24T04:48:15.002Z,956.6
2016-11-24T04:49:14.988Z,956.59
2016-11-24T04:50:14.973Z,956.61
2016-11-24T04:51:14.961Z,956.57
2016-11-24T04:52:14.946Z,956.58
2016-11-24T04:53:14.939Z,956.57
2016-11-24T04:54:14.919Z,956.56
2016-11-24T04:55:14.905Z,956.55
2016-11-24T04:56:14.893Z,956.52
2016-11-24T04:57:14.878Z,956.5
2016-11-24T04:58:14.864Z,956.52
2016-11-24T04:59:14.851Z,956.53
2016-11-24T05:00:14.836Z,956.5
2016-11-24T05:01:14.822Z,956.48
2016-11-24T05:02:14.809Z,956.52
2016-11-24T05:03:14.794Z,956.52
2016-11-24T05:04:14.781Z,956.52
2016-11-24T05:05:14.768Z,956.55
2016-11-24T05:06:14.753Z,956.56
2016-11-24T05:07:14.739Z,956.57
2016-11-24T05:08:14.724Z,956.61
2016-11-24T05:09:14.711Z,956.66
2016-11-24T05:10:14.697Z,956.62
2016-11-24T05:11:14.684Z,956.64
2016-11-24T05:12:14.668Z,956.65
2016-11-24T05:13:14.654Z,956.65
2016-11-24T05:14:14.641Z,956.68
2016-11-24T05:15:14.628Z,956.68
2016-11-24T05:16:14.613Z,956.64
2016-11-24T05:17:14.598Z,956.68
2016-11-24T05:18:14.584Z,956.7
2016-11-24T05:19:14.570Z,956.71
2016-11-24T05:20:14.555Z,956.67
2016-11-24T05:21:14.543Z,956.7
2016-11-24T05:22:14.529Z,956.73
2016-11-24T05:23:14.513Z,956.71
2016-11-24T05:24:14.499Z,956.73
2016-11-24T05:25:14.487Z,956.68
2016-11-24T05:26:14.472Z,956.7
2016-11-24T05:27:14.457Z,956.69
2016-11-24T05:28:14.443Z,956.73
2016-11-24T05:29:14.430Z,956.72
2016-11-24T05:30:14.415Z,956.73
2016-11-24T05:31:14.401Z,956.74
2016-11-24T05:32:14.387Z,956.73
2016-11-24T05:33:14.373Z,956.74
2016-11-24T05:34:14.369Z,956.74
2016-11-24T05:35:14.344Z,956.75
2016-11-24T05:36:14.330Z,956.78
2016-11-24T05:37:14.318Z,956.79
2016-11-24T05:38:14.302Z,956.82
2016-11-24T05:39:14.288Z,956.77
2016-11-24T05:40:14.274Z,956.78
2016-11-24T05:41:14.260Z,956.78
2016-11-24T05:42:14.249Z,956.77
2016-11-24T05:43:14.231Z,956.79
2016-11-24T05:44:14.218Z,956.77
2016-11-24T05:45:14.205Z,956.81
2016-11-24T05:46:14.189Z,956.83
2016-11-24T05:47:14.175Z,956.84
2016-11-24T05:48:14.161Z,956.83
2016-11-24T05:49:14.145Z,956.85
2016-11-24T05:51:14.119Z,956.9
2016-11-24T05:52:14.105Z,956.85
2016-11-24T05:53:14.089Z,956.86
2016-11-24T05:54:14.077Z,956.8
2016-11-24T05:55:14.063Z,956.83
2016-11-24T05:56:14.046Z,956.85
2016-11-24T05:57:14.033Z,956.82
2016-11-24T05:58:14.018Z,956.83
2016-11-24T05:59:14.005Z,956.83
2016-11-24T06:00:13.990Z,956.77
2016-11-24T06:01:13.976Z,956.84
2016-11-24T06:02:13.964Z,956.87
2016-11-24T06:03:13.947Z,956.9
2016-11-24T06:04:13.934Z,956.91
2016-11-24T06:05:13.921Z,956.9
2016-11-24T06:06:13.907Z,956.92
2016-11-24T06:07:13.892Z,956.93
2016-11-24T06:08:13.879Z,956.91
2016-11-24T06:09:13.866Z,956.96
2016-11-24T06:10:13.852Z,956.98
2016-11-24T06:11:13.840Z,956.98
2016-11-24T06:12:13.825Z,956.92
2016-11-24T06:13:13.813Z,956.94
2016-11-24T06:14:13.798Z,956.97
2016-11-24T06:15:13.784Z,957.01
2016-11-24T06:16:13.771Z,957
2016-11-24T06:17:13.758Z,957.01
2016-11-24T06:18:13.743Z,957.05
2016-11-24T06:19:13.729Z,957.08
2016-11-24T06:20:13.722Z,957.05
2016-11-24T06:21:13.703Z,957.06
2016-11-24T06:22:13.690Z,957.05
2016-11-24T06:23:13.676Z,957.04
2016-11-24T06:24:13.663Z,957.07
2016-11-24T06:25:13.649Z,957.08
2016-11-24T06:26:13.635Z,957.06
2016-11-24T06:27:13.622Z,957.1
2016-11-24T06:28:13.610Z,957.1
2016-11-24T06:29:13.595Z,957.11
2016-11-24T06:30:13.582Z,957.14
2016-11-24T06:31:13.569Z,957.16
2016-11-24T06:32:13.555Z,957.15
2016-11-24T06:33:13.541Z,957.15
2016-11-24T06:34:13.529Z,957.17
2016-11-24T06:35:13.515Z,957.17
2016-11-24T06:36:13.501Z,957.17
2016-11-24T06:37:13.489Z,957.22
2016-11-24T06:38:13.476Z,957.19
2016-11-24T06:39:13.462Z,957.23
2016-11-24T06:40:13.450Z,957.27
2016-11-24T06:41:13.436Z,957.27
2016-11-24T06:42:13.425Z,957.3
2016-11-24T06:43:13.410Z,957.31
2016-11-24T06:44:13.398Z,957.32
2016-11-24T06:45:13.384Z,957.36
2016-11-24T06:46:13.371Z,957.38
2016-11-24T06:47:13.357Z,957.37
2016-11-24T06:48:13.343Z,957.43
2016-11-24T06:49:13.330Z,957.47
2016-11-24T06:50:13.319Z,957.46
2016-11-24T06:51:13.303Z,957.44
2016-11-24T06:52:13.295Z,957.45
2016-11-24T06:53:13.280Z,957.47
2016-11-24T06:54:13.266Z,957.45
2016-11-24T06:55:13.251Z,957.41
2016-11-24T06:56:13.239Z,957.45
2016-11-24T06:57:13.226Z,957.42
2016-11-24T06:58:13.213Z,957.43
2016-11-24T06:59:13.199Z,957.43
2016-11-24T07:00:13.185Z,957.42
2016-11-24T07:01:13.175Z,957.35
2016-11-24T07:02:13.160Z,957.38
2016-11-24T07:03:13.148Z,957.39
2016-11-24T07:04:13.134Z,957.36
2016-11-24T07:05:13.136Z,957.41
2016-11-24T07:06:13.107Z,957.36
2016-11-24T07:07:13.094Z,957.38
2016-11-24T07:08:13.082Z,957.42
2016-11-24T07:09:13.067Z,957.42
2016-11-24T07:10:13.054Z,957.49
2016-11-24T07:11:13.043Z,957.49
2016-11-24T07:12:13.030Z,957.56
2016-11-24T07:13:13.016Z,957.6
2016-11-24T07:14:13.004Z,957.6
2016-11-24T07:15:12.990Z,957.63
2016-11-24T07:16:12.980Z,957.61
2016-11-24T07:17:12.963Z,957.59
2016-11-24T07:18:12.951Z,957.61
2016-11-24T07:19:12.944Z,957.64
2016-11-24T07:20:12.924Z,957.61
2016-11-24T07:21:12.912Z,957.61
2016-11-24T07:22:12.900Z,957.65
2016-11-24T07:23:12.886Z,957.64
2016-11-24T07:24:12.874Z,957.67
2016-11-24T07:25:12.860Z,957.67
2016-11-24T07:26:12.849Z,957.65
2016-11-24T07:27:12.835Z,957.71
2016-11-24T07:28:12.821Z,957.71
2016-11-24T07:29:12.826Z,957.67
2016-11-24T07:30:12.796Z,957.69
2016-11-24T07:31:12.782Z,957.68
2016-11-24T07:32:12.770Z,957.69
2016-11-24T07:33:12.758Z,957.69
2016-11-24T07:34:12.743Z,957.74
2016-11-24T07:35:12.730Z,957.72
2016-11-24T07:36:12.717Z,957.73
2016-11-24T07:37:12.706Z,957.72
2016-11-24T07:38:12.691Z,957.78
2016-11-24T07:39:12.678Z,957.75
2016-11-24T07:40:12.667Z,957.77
2016-11-24T07:41:12.654Z,957.8
2016-11-24T07:42:12.640Z,957.83
2016-11-24T07:43:12.628Z,957.86
2016-11-24T07:44:12.615Z,957.84
2016-11-24T07:45:12.602Z,957.82
2016-11-24T07:46:12.590Z,957.86
2016-11-24T07:47:12.577Z,957.82
2016-11-24T07:48:12.565Z,957.79
2016-11-24T07:49:12.552Z,957.79
2016-11-24T07:50:12.540Z,957.81
2016-11-24T07:51:12.526Z,957.79
2016-11-24T07:52:12.514Z,957.81
2016-11-24T07:53:12.501Z,957.8
2016-11-24T07:54:12.489Z,957.85
2016-11-24T07:55:12.476Z,957.83
2016-11-24T07:56:12.463Z,957.89
2016-11-24T07:57:12.449Z,957.89
2016-11-24T07:58:12.439Z,957.88
2016-11-24T07:59:12.424Z,957.89
2016-11-24T08:00:12.411Z,957.87
2016-11-24T08:01:12.400Z,957.89
2016-11-24T08:02:12.387Z,957.91
2016-11-24T08:03:12.375Z,957.87
2016-11-24T08:04:12.360Z,957.85
2016-11-24T08:05:12.347Z,957.82
2016-11-24T08:06:12.335Z,957.82
2016-11-24T08:07:12.322Z,957.83
2016-11-24T08:08:12.310Z,957.77
2016-11-24T08:09:12.296Z,957.77
2016-11-24T08:10:12.285Z,957.81
2016-11-24T08:11:12.271Z,957.78
2016-11-24T08:12:12.259Z,957.87
2016-11-24T08:13:12.247Z,957.85
2016-11-24T08:14:12.235Z,957.88
2016-11-24T08:15:12.221Z,957.87
2016-11-24T08:16:12.209Z,957.85
2016-11-24T08:17:12.197Z,957.86
2016-11-24T08:18:12.183Z,957.88
2016-11-24T08:19:12.172Z,957.95
2016-11-24T08:20:12.158Z,957.88
2016-11-24T08:21:12.146Z,957.94
2016-11-24T08:22:12.132Z,957.93
2016-11-24T08:23:12.121Z,957.97
2016-11-24T08:24:12.108Z,957.98
2016-11-24T08:25:12.096Z,957.97
2016-11-24T08:26:12.084Z,958.02
2016-11-24T08:27:12.070Z,957.99
2016-11-24T08:28:12.059Z,957.99
2016-11-24T08:29:12.044Z,958.03
2016-11-24T08:30:12.032Z,958
2016-11-24T08:31:12.021Z,958.05
2016-11-24T08:32:12.009Z,958
2016-11-24T08:33:11.995Z,958.04
2016-11-24T08:34:11.983Z,958.02
2016-11-24T08:35:11.972Z,958.06
2016-11-24T08:36:11.957Z,958.07
2016-11-24T08:37:11.945Z,958.12
2016-11-24T08:38:11.933Z,958.1
2016-11-24T08:39:11.921Z,958.14
2016-11-24T08:40:11.906Z,958.15
2016-11-24T08:41:11.894Z,958.17
2016-11-24T08:42:11.883Z,958.15
2016-11-24T08:43:11.870Z,958.18
2016-11-24T08:44:11.857Z,958.17
2016-11-24T08:45:11.845Z,958.19
2016-11-24T08:46:11.832Z,958.2
2016-11-24T08:47:11.820Z,958.22
2016-11-24T08:48:11.807Z,958.22
2016-11-24T08:49:11.796Z,958.22
2016-11-24T08:50:11.782Z,958.24
2016-11-24T08:51:11.770Z,958.26
2016-11-24T08:52:11.757Z,958.25
2016-11-24T08:53:11.747Z,958.23
2016-11-24T08:54:11.732Z,958.28
2016-11-24T08:55:11.725Z,958.3
2016-11-24T08:56:11.711Z,958.3
2016-11-24T08:57:11.695Z,958.28
2016-11-24T08:58:11.683Z,958.28
2016-11-24T08:59:11.671Z,958.28
2016-11-24T09:00:11.658Z,958.3
2016-11-24T09:01:11.647Z,958.33
2016-11-24T09:02:11.634Z,958.33
2016-11-24T09:03:11.621Z,958.31
2016-11-24T09:04:11.610Z,958.3
2016-11-24T09:05:11.596Z,958.27
2016-11-24T09:06:11.584Z,958.31
2016-11-24T09:07:11.571Z,958.29
2016-11-24T09:08:11.560Z,958.31
2016-11-24T09:09:11.547Z,958.31
2016-11-24T09:10:11.534Z,958.34
2016-11-24T09:11:11.523Z,958.28
2016-11-24T09:12:11.510Z,958.28
2016-11-24T09:13:11.502Z,958.23
2016-11-24T09:14:11.485Z,958.24
2016-11-24T09:15:11.475Z,958.28
2016-11-24T09:16:11.462Z,958.26
2016-11-24T09:17:11.448Z,958.31
2016-11-24T09:18:11.436Z,958.27
2016-11-24T09:19:11.425Z,958.29
2016-11-24T09:20:11.413Z,958.32
2016-11-24T09:21:11.400Z,958.32
2016-11-24T09:22:11.388Z,958.34
2016-11-24T09:23:11.376Z,958.36
2016-11-24T09:24:11.364Z,958.31
2016-11-24T09:25:11.352Z,958.33
2016-11-24T09:26:11.340Z,958.34
2016-11-24T09:27:11.327Z,958.31
2016-11-24T09:28:11.315Z,958.35
2016-11-24T09:29:11.301Z,958.36
2016-11-24T09:30:11.288Z,958.29
2016-11-24T09:31:11.276Z,958.3
2016-11-24T09:32:11.265Z,958.3
2016-11-24T09:33:11.253Z,958.3
2016-11-24T09:34:11.241Z,958.31
2016-11-24T09:35:11.228Z,958.37
2016-11-24T09:36:11.217Z,958.34
2016-11-24T09:37:11.205Z,958.32
2016-11-24T09:38:11.191Z,958.34
2016-11-24T09:39:11.180Z,958.33
2016-11-24T09:40:11.167Z,958.31
2016-11-24T09:41:11.155Z,958.35
2016-11-24T09:42:11.142Z,958.38
2016-11-24T09:43:11.131Z,958.44
2016-11-24T09:44:11.119Z,958.44
2016-11-24T09:45:11.106Z,958.5
2016-11-24T09:46:11.094Z,958.51
2016-11-24T09:47:11.082Z,958.55
2016-11-24T09:48:11.069Z,958.49
2016-11-24T09:49:11.058Z,958.53
2016-11-24T09:50:11.044Z,958.55
2016-11-24T09:51:11.032Z,958.55
2016-11-24T09:52:11.022Z,958.54
2016-11-24T09:53:11.008Z,958.53
2016-11-24T09:54:10.999Z,958.53
2016-11-24T09:55:10.985Z,958.53
2016-11-24T09:56:10.973Z,958.5
2016-11-24T09:57:10.960Z,958.49
2016-11-24T09:58:10.947Z,958.51
2016-11-24T09:59:10.936Z,958.51
2016-11-24T10:00:10.924Z,958.48
2016-11-24T10:01:10.912Z,958.52
2016-11-24T10:02:10.900Z,958.6
2016-11-24T10:03:10.887Z,958.56
2016-11-24T10:04:10.875Z,958.59
2016-11-24T10:05:10.863Z,958.56
2016-11-24T10:06:10.851Z,958.55
2016-11-24T10:07:10.840Z,958.56
2016-11-24T10:08:10.825Z,958.53
2016-11-24T10:09:10.814Z,958.5
2016-11-24T10:10:10.804Z,958.5
2016-11-24T10:11:10.793Z,958.5
2016-11-24T10:12:10.778Z,958.52
2016-11-24T10:13:10.767Z,958.51
2016-11-24T10:14:10.756Z,958.47
2016-11-24T10:15:10.743Z,958.43
2016-11-24T10:16:10.731Z,958.4
2016-11-24T10:17:10.719Z,958.45
2016-11-24T10:18:10.711Z,958.42
2016-11-24T10:19:10.694Z,958.44
2016-11-24T10:20:10.683Z,958.38
2016-11-24T10:21:10.670Z,958.44
2016-11-24T10:22:10.658Z,958.46
2016-11-24T10:23:10.646Z,958.43
2016-11-24T10:24:10.634Z,958.49
2016-11-24T10:25:10.622Z,958.45
2016-11-24T10:26:10.609Z,958.42
2016-11-24T10:27:10.597Z,958.44
2016-11-24T10:28:10.586Z,958.43
2016-11-24T10:29:10.576Z,958.41
2016-11-24T10:30:10.561Z,958.38
2016-11-24T10:31:10.549Z,958.38
2016-11-24T10:32:10.536Z,958.41
2016-11-24T10:33:10.526Z,958.3
2016-11-24T10:34:10.512Z,958.31
2016-11-24T10:35:10.501Z,958.32
2016-11-24T10:36:10.504Z,958.27
2016-11-24T10:37:10.475Z,958.32
2016-11-24T10:38:10.463Z,958.25
2016-11-24T10:39:10.454Z,958.3
2016-11-24T10:40:10.438Z,958.34
2016-11-24T10:41:10.429Z,958.35
2016-11-24T10:42:10.414Z,958.38
2016-11-24T10:43:10.402Z,958.38
2016-11-24T10:44:10.396Z,958.35
2016-11-24T10:45:10.377Z,958.35
2016-11-24T10:46:10.365Z,958.33
2016-11-24T10:47:10.354Z,958.38
2016-11-24T10:48:10.341Z,958.3
2016-11-24T10:49:10.330Z,958.31
2016-11-24T10:50:10.316Z,958.3
2016-11-24T10:51:10.304Z,958.25
2016-11-24T10:52:10.291Z,958.24
2016-11-24T10:53:10.280Z,958.27
2016-11-24T10:54:10.267Z,958.21
2016-11-24T10:55:10.255Z,958.22
2016-11-24T10:56:10.243Z,958.22
2016-11-24T10:57:10.231Z,958.24
2016-11-24T10:58:10.219Z,958.29
2016-11-24T10:59:10.207Z,958.33
2016-11-24T11:00:10.195Z,958.38
2016-11-24T11:01:10.182Z,958.44
2016-11-24T11:02:10.170Z,958.44
2016-11-24T11:03:10.161Z,958.46
2016-11-24T11:04:10.144Z,958.44
2016-11-24T11:05:10.132Z,958.44
2016-11-24T11:06:10.119Z,958.42
2016-11-24T11:07:10.108Z,958.39
2016-11-24T11:08:10.096Z,958.4
2016-11-24T11:09:10.083Z,958.36
2016-11-24T11:10:10.069Z,958.38
2016-11-24T11:11:10.059Z,958.37
2016-11-24T11:12:10.046Z,958.37
2016-11-24T11:13:10.037Z,958.41
2016-11-24T11:14:10.021Z,958.42
2016-11-24T11:15:10.008Z,958.44
2016-11-24T11:16:09.996Z,958.46
2016-11-24T11:17:09.984Z,958.45
2016-11-24T11:18:09.971Z,958.45
2016-11-24T11:19:09.959Z,958.43
2016-11-24T11:20:09.949Z,958.41
2016-11-24T11:21:09.934Z,958.41
2016-11-24T11:22:09.922Z,958.41
2016-11-24T11:23:09.911Z,958.35
2016-11-24T11:24:09.899Z,958.35
2016-11-24T11:25:09.884Z,958.36
2016-11-24T11:26:09.874Z,958.31
2016-11-24T11:27:09.861Z,958.35
2016-11-24T11:28:09.849Z,958.39
2016-11-24T11:29:09.835Z,958.34
2016-11-24T11:30:09.823Z,958.36
2016-11-24T11:31:09.812Z,958.37
2016-11-24T11:32:09.798Z,958.38
2016-11-24T11:33:09.786Z,958.39
2016-11-24T11:34:09.775Z,958.34
2016-11-24T11:35:09.763Z,958.37
2016-11-24T11:36:09.750Z,958.33
2016-11-24T11:37:09.738Z,958.35
2016-11-24T11:38:09.726Z,958.27
2016-11-24T11:39:09.714Z,958.33
2016-11-24T11:40:09.701Z,958.31
2016-11-24T11:41:09.690Z,958.31
2016-11-24T11:42:09.677Z,958.26
2016-11-24T11:43:09.664Z,958.25
2016-11-24T11:44:09.652Z,958.24
2016-11-24T11:45:09.640Z,958.3
2016-11-24T11:46:09.628Z,958.3
2016-11-24T11:47:09.616Z,958.26
2016-11-24T11:48:09.603Z,958.28
2016-11-24T11:49:09.592Z,958.23
2016-11-24T11:50:09.579Z,958.21
2016-11-24T11:51:09.568Z,958.22
2016-11-24T11:52:09.555Z,958.18
2016-11-24T11:53:09.543Z,958.15
2016-11-24T11:54:09.531Z,958.18
2016-11-24T11:55:09.519Z,958.19
2016-11-24T11:56:09.507Z,958.19
2016-11-24T11:57:09.495Z,958.16
2016-11-24T11:58:09.483Z,958.18
2016-11-24T11:59:09.471Z,958.14
2016-11-24T12:00:09.459Z,958.15
2016-11-24T12:01:09.445Z,958.18
2016-11-24T12:02:09.435Z,958.16
2016-11-24T12:03:09.439Z,958.14
2016-11-24T12:04:09.410Z,958.17
2016-11-24T12:05:09.398Z,958.19
2016-11-24T12:06:09.386Z,958.22
2016-11-24T12:07:09.373Z,958.19
2016-11-24T12:08:09.361Z,958.15
2016-11-24T12:09:09.350Z,958.12
2016-11-24T12:10:09.337Z,958.13
2016-11-24T12:11:09.326Z,958.11
2016-11-24T12:12:09.313Z,958.09
2016-11-24T12:13:09.301Z,958.07
2016-11-24T12:14:09.291Z,958.05
2016-11-24T12:15:09.277Z,958.01
2016-11-24T12:16:09.264Z,958.07
2016-11-24T12:17:09.253Z,958.02
2016-11-24T12:18:09.242Z,958
2016-11-24T12:19:09.229Z,958.01
2016-11-24T12:20:09.217Z,958
2016-11-24T12:21:09.204Z,958
2016-11-24T12:22:09.194Z,958
2016-11-24T12:23:09.181Z,957.98
2016-11-24T12:24:09.169Z,958
2016-11-24T12:25:09.156Z,958
2016-11-24T12:26:09.145Z,957.94
2016-11-24T12:27:09.132Z,957.93
2016-11-24T12:28:09.120Z,957.9
2016-11-24T12:29:09.110Z,957.88
2016-11-24T12:30:09.097Z,957.84
2016-11-24T12:31:09.085Z,957.77
2016-11-24T12:32:09.073Z,957.75